Thursday, April 17, 2014, 5:51 PM EDT

KPOU, Poughkeepsie Dutchess Cty

Location: Wappingers Falls, NY, United States Lat: 41.633
Local Time: 5:51 PM EDT (21:51 GMT) Lon: -73.883
Time Zone: US/Eastern Elev: 167 ft

Show me the last for .
Show Decoded

2014-04-17 16:53 METAR KPOU 172053Z 13008KT 10SM CLR 11/M07 A3061 RMK AO2 SLP364 T01111067 56021
                 =
2014-04-17 15:53 METAR KPOU 171953Z 10SM CLR 11/M06 A3063 RMK AO2 SLP369 T01111061 =
2014-04-17 14:53 METAR KPOU 171853Z 12007KT 060V200 10SM CLR 11/M07 A3065 RMK AO2 SLP378
                 T01061067 =
2014-04-17 13:53 METAR KPOU 171753Z 16006KT 10SM CLR 09/M07 A3067 RMK AO2 SLP385 T00941067 10100
                 20011 56019 =
2014-04-17 12:53 METAR KPOU 171653Z 09007KT 10SM CLR 09/M06 A3069 RMK AO2 SLP390 T00891061 =
2014-04-17 11:53 METAR KPOU 171553Z 13006KT 10SM CLR 07/M07 A3071 RMK AO2 SLP398 T00721072 =
2014-04-17 10:53 METAR KPOU 171453Z 01006KT 10SM CLR 06/M08 A3073 RMK AO2 SLP404 T00611083 50005
                 =
2014-04-17 09:53 METAR KPOU 171353Z 08005KT 10SM CLR 04/M08 A3074 RMK AO2 SLP407 T00441083 =
2014-04-17 08:53 METAR KPOU 171253Z 06006KT 10SM CLR 03/M08 A3073 RMK AO2 SLP404 T00331083 =
2014-04-17 07:53 METAR KPOU 171153Z 00000KT 10SM CLR 01/M06 A3072 RMK AO2 SLP400 T00111056 10011
                 21033 53018 =
2014-04-17 06:53 METAR KPOU 171053Z 03003KT 10SM CLR M02/M07 A3069 RMK AO2 SLP390 T10171067 =
2014-04-17 05:53 METAR KPOU 170953Z 00000KT 10SM CLR M03/M07 A3067 RMK AO2 SLP384 T10281067 =
2014-04-17 04:53 METAR KPOU 170853Z 00000KT 10SM CLR M03/M06 A3066 RMK AO2 SLP381 T10281056 53012
                 =
2014-04-17 03:53 METAR KPOU 170753Z 00000KT 10SM CLR M02/M06 A3065 RMK AO2 SLP377 T10221061 =
2014-04-17 02:53 METAR KPOU 170653Z 00000KT 9SM CLR M02/M06 A3064 RMK AO2 SLP373 T10171056 =
2014-04-17 01:53 METAR KPOU 170553Z 00000KT 10SM CLR M01/M06 A3063 RMK AO2 SLP370 T10111061 10039
                 21011 51023 =
2014-04-17 00:53 METAR KPOU 170453Z 00000KT 10SM CLR M01/M06 A3061 RMK AO2 SLP363 T10061061
                 400781017 =
2014-04-16 23:53 METAR KPOU 170353Z 04006KT 10SM CLR 01/M08 A3058 RMK AO2 SLP355 T00111083 =
2014-04-16 22:53 METAR KPOU 170253Z 02004KT 10SM CLR 02/M09 A3056 RMK AO2 SLP347 T00171089 51023
                 =
2014-04-16 21:53 METAR KPOU 170153Z 35005KT 10SM CLR 01/M07 A3054 RMK AO2 SLP340 T00111072 =
2014-04-16 20:53 METAR KPOU 170053Z 04004KT 10SM CLR 03/M09 A3053 RMK AO2 SLP335 T00281094 =
2014-04-16 19:53 METAR KPOU 162353Z 02006KT 10SM CLR 04/M09 A3049 RMK AO2 SLP323 T00391094 10078
                 20039 53019 =
2014-04-16 18:53 METAR KPOU 162253Z 03007KT 10SM CLR 06/M10 A3046 RMK AO2 SLP314 T00611100 =
2014-04-16 17:53 METAR KPOU 162153Z 01009KT 10SM CLR 07/M10 A3045 RMK AO2 SLP309 T00671100 =

Support USWX by starting your Amazon purchase here.